createdAt,value
2023-04-16T00:00:33.869Z,0.00
2023-04-16T00:03:35.792Z,0.00
2023-04-16T00:06:37.622Z,0.00
2023-04-16T00:09:39.158Z,0.00
2023-04-16T00:12:41.153Z,0.00
2023-04-16T00:15:42.769Z,0.00
2023-04-16T00:18:44.402Z,0.00
2023-04-16T00:21:45.996Z,0.00
2023-04-16T00:24:47.589Z,0.00
2023-04-16T00:27:49.166Z,0.00
2023-04-16T00:30:51.153Z,0.40
2023-04-16T00:33:53.504Z,0.23
2023-04-16T00:36:55.082Z,0.00
2023-04-16T00:39:56.653Z,0.85
2023-04-16T00:42:58.196Z,0.97
2023-04-16T00:45:59.900Z,1.16
2023-04-16T00:49:03.033Z,2.24
2023-04-16T00:52:04.648Z,3.41
2023-04-16T00:55:08.120Z,3.89
2023-04-16T00:58:09.724Z,4.59
2023-04-16T01:01:11.502Z,6.53
2023-04-16T01:04:13.206Z,7.30
2023-04-16T01:07:14.918Z,7.86
2023-04-16T01:10:16.494Z,7.88
2023-04-16T01:13:18.119Z,8.55
2023-04-16T01:16:19.729Z,8.85
2023-04-16T01:19:21.374Z,8.95
2023-04-16T01:22:22.938Z,8.94
2023-04-16T01:25:24.524Z,9.20
2023-04-16T01:28:26.231Z,9.92
2023-04-16T01:31:27.863Z,10.36
2023-04-16T01:34:29.518Z,10.10
2023-04-16T01:37:31.181Z,9.80
2023-04-16T01:40:32.757Z,10.12
2023-04-16T01:43:34.401Z,10.16
2023-04-16T01:46:36.372Z,11.70
2023-04-16T01:49:38.245Z,18.17
2023-04-16T01:52:39.883Z,19.98
2023-04-16T01:55:41.438Z,20.36
2023-04-16T01:58:42.995Z,20.42
2023-04-16T02:01:44.667Z,20.39
2023-04-16T02:04:46.421Z,20.68
2023-04-16T02:07:47.989Z,20.85
2023-04-16T02:10:50.624Z,20.88
2023-04-16T02:13:52.234Z,21.16
2023-04-16T02:16:53.817Z,21.19
2023-04-16T02:19:55.551Z,21.74
2023-04-16T02:22:57.122Z,22.18
2023-04-16T02:25:58.884Z,22.59
2023-04-16T02:29:00.590Z,22.66
2023-04-16T02:32:02.255Z,22.90
2023-04-16T02:35:04.178Z,23.67
2023-04-16T02:38:06.082Z,23.97
2023-04-16T02:41:07.726Z,24.21
2023-04-16T02:44:09.317Z,24.56
2023-04-16T02:47:10.858Z,23.86
2023-04-16T02:50:12.493Z,24.66
2023-04-16T02:53:14.111Z,24.50
2023-04-16T02:56:15.873Z,24.90
2023-04-16T02:59:17.407Z,25.38
2023-04-16T03:02:19.033Z,26.32
2023-04-16T03:05:20.973Z,26.62
2023-04-16T03:08:22.615Z,26.56
2023-04-16T03:11:24.334Z,26.24
2023-04-16T03:14:26.023Z,26.99
2023-04-16T03:17:27.584Z,26.98
2023-04-16T03:20:29.149Z,27.05
2023-04-16T03:23:30.837Z,27.10
2023-04-16T03:26:32.399Z,27.19
2023-04-16T03:29:36.913Z,27.51
2023-04-16T03:32:38.853Z,27.69
2023-04-16T03:35:40.560Z,27.44
2023-04-16T03:38:42.146Z,27.77
2023-04-16T03:41:43.744Z,27.66
2023-04-16T03:44:45.386Z,27.81
2023-04-16T03:47:52.483Z,27.97
2023-04-16T03:50:54.221Z,27.75
2023-04-16T03:53:56.084Z,27.86
2023-04-16T03:56:57.732Z,27.95
2023-04-16T03:59:59.316Z,27.92
2023-04-16T04:03:01.073Z,27.68
2023-04-16T04:06:08.249Z,27.74
2023-04-16T04:09:09.968Z,27.63
2023-04-16T04:12:11.721Z,27.42
2023-04-16T04:15:13.424Z,27.34
2023-04-16T04:18:15.005Z,27.39
2023-04-16T04:21:16.595Z,27.06
2023-04-16T04:24:18.149Z,26.96
2023-04-16T04:27:19.714Z,26.90
2023-04-16T04:30:21.379Z,26.67
2023-04-16T04:33:23.010Z,26.63
2023-04-16T04:36:24.575Z,26.47
2023-04-16T04:39:26.310Z,26.27
2023-04-16T04:42:27.849Z,26.38
2023-04-16T04:45:31.272Z,26.30
2023-04-16T04:48:33.529Z,26.24
2023-04-16T04:51:35.250Z,26.20
2023-04-16T04:54:36.957Z,26.30
2023-04-16T04:57:38.517Z,26.57
2023-04-16T05:00:40.313Z,26.53
2023-04-16T05:03:42.005Z,26.65
2023-04-16T05:06:44.105Z,26.30
2023-04-16T05:09:45.798Z,26.44
2023-04-16T05:12:51.079Z,26.33
2023-04-16T05:15:52.690Z,25.94
2023-04-16T05:18:56.093Z,24.87
2023-04-16T05:21:57.698Z,24.78
2023-04-16T05:24:59.308Z,24.54
2023-04-16T05:28:00.997Z,25.03
2023-04-16T05:31:02.611Z,25.60
2023-04-16T05:34:04.250Z,26.16
2023-04-16T05:37:05.848Z,26.33
2023-04-16T05:40:08.211Z,26.90
2023-04-16T05:43:09.842Z,27.96
2023-04-16T05:46:11.528Z,28.59
2023-04-16T05:49:13.178Z,27.97
2023-04-16T05:52:15.367Z,27.84
2023-04-16T05:55:16.952Z,27.22
2023-04-16T05:58:18.546Z,26.54
2023-04-16T06:01:20.392Z,25.61
2023-04-16T06:04:21.966Z,24.66
2023-04-16T06:07:23.540Z,23.55
2023-04-16T06:10:25.416Z,22.80
2023-04-16T06:13:26.994Z,21.52
2023-04-16T06:16:28.647Z,21.25
2023-04-16T06:19:30.301Z,21.32
2023-04-16T06:22:33.014Z,21.06
2023-04-16T06:25:34.597Z,20.22
2023-04-16T06:28:36.206Z,20.09
2023-04-16T06:31:37.917Z,19.54
2023-04-16T06:34:39.690Z,19.64
2023-04-16T06:37:41.597Z,18.41
2023-04-16T06:40:43.186Z,15.99
2023-04-16T06:43:44.920Z,14.94
2023-04-16T06:46:46.517Z,13.35
2023-04-16T06:49:48.095Z,12.62
2023-04-16T06:52:49.680Z,12.20
2023-04-16T06:55:51.927Z,12.52
2023-04-16T06:58:53.504Z,12.42
2023-04-16T07:01:55.339Z,12.26
2023-04-16T07:04:56.952Z,12.18
2023-04-16T07:07:59.458Z,12.34
2023-04-16T07:11:01.140Z,12.48
2023-04-16T07:14:02.716Z,12.93
2023-04-16T07:17:04.295Z,13.16
2023-04-16T07:20:06.677Z,12.91
2023-04-16T07:23:08.229Z,12.79
2023-04-16T07:26:10.556Z,12.76
2023-04-16T07:29:12.398Z,12.60
2023-04-16T07:32:15.460Z,12.47
2023-04-16T07:35:17.461Z,12.66
2023-04-16T07:38:19.022Z,12.81
2023-04-16T07:41:20.606Z,12.55
2023-04-16T07:44:22.218Z,12.84
2023-04-16T07:47:23.849Z,12.56
2023-04-16T07:50:25.748Z,12.48
2023-04-16T07:53:27.352Z,12.61
2023-04-16T07:56:28.996Z,12.43
2023-04-16T07:59:30.781Z,12.14
2023-04-16T08:02:38.417Z,12.20
2023-04-16T08:05:40.253Z,12.11
2023-04-16T08:08:41.825Z,12.10
2023-04-16T08:11:43.462Z,11.98
2023-04-16T08:14:45.888Z,11.88
2023-04-16T08:17:47.419Z,11.81
2023-04-16T08:20:49.099Z,11.93
2023-04-16T08:23:50.664Z,12.90
2023-04-16T08:26:52.426Z,13.50
2023-04-16T08:29:54.101Z,13.57
2023-04-16T08:32:56.070Z,13.70
2023-04-16T08:35:57.866Z,13.56
2023-04-16T08:38:59.455Z,13.34
2023-04-16T08:42:04.756Z,13.40
2023-04-16T08:45:16.119Z,13.44
2023-04-16T08:48:22.042Z,13.14
2023-04-16T08:51:27.443Z,13.04
2023-04-16T08:54:38.627Z,12.87
2023-04-16T08:57:48.569Z,13.09
2023-04-16T09:00:51.109Z,12.96
2023-04-16T09:03:53.159Z,13.02
2023-04-16T09:06:59.398Z,13.03
2023-04-16T09:10:01.698Z,12.81
2023-04-16T09:13:03.514Z,12.79
2023-04-16T09:16:07.916Z,12.30
2023-04-16T09:19:09.649Z,12.12
2023-04-16T09:22:12.055Z,11.84
2023-04-16T09:25:15.369Z,10.67
2023-04-16T09:28:45.976Z,9.95
2023-04-16T09:32:05.471Z,10.47
2023-04-16T09:35:07.381Z,9.02
2023-04-16T09:38:08.994Z,67.91
2023-04-16T09:41:10.628Z,68.36
2023-04-16T09:44:12.229Z,67.80
2023-04-16T09:47:14.029Z,68.03
2023-04-16T09:50:18.632Z,67.22
2023-04-16T09:53:28.357Z,67.83
2023-04-16T09:56:30.562Z,66.53
2023-04-16T09:59:34.146Z,67.28
2023-04-16T10:02:39.422Z,66.09
2023-04-16T10:05:41.780Z,66.74
2023-04-16T10:08:49.651Z,68.55
2023-04-16T10:11:51.991Z,66.46
2023-04-16T10:14:53.539Z,66.16
2023-04-16T10:17:57.010Z,64.71
2023-04-16T10:20:59.227Z,65.65
2023-04-16T10:24:01.270Z,65.86
2023-04-16T10:27:03.286Z,65.39
2023-04-16T10:30:07.213Z,63.88
2023-04-16T10:33:09.887Z,61.43
2023-04-16T10:36:17.321Z,61.17
2023-04-16T10:39:21.345Z,59.21
2023-04-16T10:42:22.936Z,56.60
2023-04-16T10:45:32.726Z,54.10
2023-04-16T10:48:48.693Z,53.96
2023-04-16T10:51:54.716Z,49.94
2023-04-16T10:54:59.489Z,52.85
2023-04-16T10:58:01.099Z,52.70
2023-04-16T11:01:11.283Z,54.13
2023-04-16T11:04:22.341Z,52.69
2023-04-16T11:07:34.925Z,54.25
2023-04-16T11:10:39.496Z,52.80
2023-04-16T11:13:45.061Z,54.60
2023-04-16T11:16:46.690Z,54.52
2023-04-16T11:19:48.556Z,56.23
2023-04-16T11:22:55.004Z,55.67
2023-04-16T11:25:58.581Z,53.15
2023-04-16T11:29:00.445Z,56.90
2023-04-16T11:32:02.066Z,56.03
2023-04-16T11:35:13.921Z,55.13
2023-04-16T11:38:18.189Z,55.68
2023-04-16T11:41:21.922Z,55.50
2023-04-16T11:44:28.102Z,54.87
2023-04-16T11:47:31.817Z,54.55
2023-04-16T11:50:33.700Z,53.96
2023-04-16T11:53:36.823Z,54.27
2023-04-16T11:56:38.382Z,52.46
2023-04-16T12:00:02.745Z,50.14
2023-04-16T12:03:05.637Z,49.82
2023-04-16T12:06:09.109Z,49.79
2023-04-16T12:09:26.310Z,50.62
2023-04-16T12:12:31.449Z,50.66
2023-04-16T12:15:50.931Z,52.04
2023-04-16T12:19:00.496Z,51.00
2023-04-16T12:22:02.125Z,49.92
2023-04-16T12:25:24.649Z,49.57
2023-04-16T12:28:31.679Z,51.17
2023-04-16T12:31:39.339Z,49.96
2023-04-16T12:34:51.561Z,46.85
2023-04-16T12:37:53.125Z,43.51
2023-04-16T12:40:57.097Z,43.35
2023-04-16T12:44:07.149Z,43.30
2023-04-16T12:47:08.790Z,43.56
2023-04-16T12:50:10.848Z,45.25
2023-04-16T12:53:12.467Z,44.88
2023-04-16T12:56:14.089Z,47.08
2023-04-16T12:59:17.381Z,46.38
2023-04-16T13:02:19.062Z,46.36
2023-04-16T13:05:21.061Z,45.15
2023-04-16T13:08:22.751Z,45.04
2023-04-16T13:11:24.411Z,45.86
2023-04-16T13:14:26.313Z,46.37
2023-04-16T13:17:27.953Z,46.45
2023-04-16T13:20:29.597Z,46.21
2023-04-16T13:23:31.550Z,48.26
2023-04-16T13:26:33.138Z,49.50
2023-04-16T13:29:36.731Z,49.18
2023-04-16T13:32:38.307Z,50.22
2023-04-16T13:35:39.901Z,51.17
2023-04-16T13:38:42.262Z,51.62
2023-04-16T13:41:43.845Z,52.98
2023-04-16T13:44:48.871Z,53.43
2023-04-16T13:47:50.549Z,54.40
2023-04-16T13:50:52.250Z,54.46
2023-04-16T13:53:55.960Z,55.10
2023-04-16T13:56:57.574Z,56.34
2023-04-16T14:00:11.867Z,56.23
2023-04-16T14:03:14.849Z,56.23
2023-04-16T14:06:18.138Z,57.27
2023-04-16T14:09:19.697Z,56.29
2023-04-16T14:12:21.373Z,56.40
2023-04-16T14:15:23.104Z,56.70
2023-04-16T14:18:24.665Z,55.65
2023-04-16T14:21:27.119Z,55.13
2023-04-16T14:24:29.246Z,54.76
2023-04-16T14:27:31.586Z,53.99
2023-04-16T14:30:33.178Z,53.78
2023-04-16T14:33:34.778Z,52.47
2023-04-16T14:36:37.004Z,52.87
2023-04-16T14:39:39.314Z,53.43
2023-04-16T14:42:41.005Z,52.35
2023-04-16T14:45:42.725Z,53.22
2023-04-16T14:48:44.352Z,53.36
2023-04-16T14:51:46.728Z,52.63
2023-04-16T14:54:48.295Z,52.78
2023-04-16T14:57:49.885Z,51.76
2023-04-16T15:00:51.547Z,52.17
2023-04-16T15:03:56.324Z,49.11
2023-04-16T15:07:00.835Z,51.72
2023-04-16T15:10:02.974Z,49.47
2023-04-16T15:13:04.586Z,50.80
2023-04-16T15:16:06.232Z,49.44
2023-04-16T15:19:07.955Z,50.08
2023-04-16T15:22:09.601Z,50.78
2023-04-16T15:25:11.285Z,51.89
2023-04-16T15:28:12.866Z,51.34
2023-04-16T15:31:14.503Z,50.66
2023-04-16T15:34:16.090Z,49.90
2023-04-16T15:37:17.679Z,49.30
2023-04-16T15:40:20.575Z,50.88
2023-04-16T15:43:22.215Z,49.61
2023-04-16T15:46:23.847Z,50.57
2023-04-16T15:49:25.660Z,51.53
2023-04-16T15:52:27.958Z,50.02
2023-04-16T15:55:29.633Z,51.64
2023-04-16T15:58:31.370Z,51.89
2023-04-16T16:01:33.049Z,52.07
2023-04-16T16:04:34.891Z,51.17
2023-04-16T16:07:36.923Z,51.64
2023-04-16T16:10:39.055Z,51.54
2023-04-16T16:13:41.729Z,51.68
2023-04-16T16:16:43.303Z,51.55
2023-04-16T16:19:46.481Z,51.85
2023-04-16T16:22:48.404Z,51.17
2023-04-16T16:25:51.483Z,52.02
2023-04-16T16:28:53.307Z,52.41
2023-04-16T16:31:54.926Z,52.82
2023-04-16T16:34:57.713Z,52.16
2023-04-16T16:37:59.484Z,51.73
2023-04-16T16:41:01.158Z,53.66
2023-04-16T16:44:02.755Z,52.31
2023-04-16T16:47:04.521Z,53.51
2023-04-16T16:50:06.859Z,54.13
2023-04-16T16:53:08.534Z,54.80
2023-04-16T16:56:10.145Z,54.87
2023-04-16T16:59:11.940Z,55.07
2023-04-16T17:02:15.104Z,54.11
2023-04-16T17:05:18.597Z,55.26
2023-04-16T17:08:20.210Z,56.36
2023-04-16T17:11:21.803Z,58.78
2023-04-16T17:14:24.430Z,59.54
2023-04-16T17:17:27.133Z,60.70
2023-04-16T17:20:28.796Z,61.99
2023-04-16T17:23:30.473Z,63.34
2023-04-16T17:26:32.109Z,63.71
2023-04-16T17:29:33.737Z,64.53
2023-04-16T17:32:35.819Z,65.62
2023-04-16T17:35:39.989Z,65.30
2023-04-16T17:38:44.285Z,65.92
2023-04-16T17:41:46.560Z,64.74
2023-04-16T17:44:48.154Z,64.72
2023-04-16T17:47:49.792Z,64.45
2023-04-16T17:50:51.386Z,64.41
2023-04-16T17:53:53.588Z,65.55
2023-04-16T17:56:55.202Z,65.24
2023-04-16T17:59:57.046Z,66.13
2023-04-16T18:02:59.782Z,65.80
2023-04-16T18:06:01.573Z,65.65
2023-04-16T18:09:05.787Z,65.53
2023-04-16T18:12:07.949Z,66.82
2023-04-16T18:15:10.379Z,67.04
2023-04-16T18:18:11.974Z,66.46
2023-04-16T18:21:13.628Z,65.89
2023-04-16T18:24:15.908Z,65.99
2023-04-16T18:27:17.492Z,65.98
2023-04-16T18:30:25.201Z,67.92
2023-04-16T18:33:49.988Z,68.67
2023-04-16T18:36:49.658Z,68.99
2023-04-16T18:39:51.307Z,69.78
2023-04-16T18:42:52.897Z,70.52
2023-04-16T18:45:54.567Z,70.89
2023-04-16T18:48:56.286Z,70.95
2023-04-16T18:51:57.881Z,72.35
2023-04-16T18:54:59.471Z,71.77
2023-04-16T18:58:01.088Z,73.29
2023-04-16T19:01:03.026Z,72.95
2023-04-16T19:04:04.838Z,74.07
2023-04-16T19:07:06.438Z,74.23
2023-04-16T19:10:08.645Z,74.46
2023-04-16T19:13:10.258Z,75.11
2023-04-16T19:16:12.351Z,75.71
2023-04-16T19:19:14.098Z,76.10
2023-04-16T19:22:15.663Z,77.15
2023-04-16T19:25:17.332Z,77.07
2023-04-16T19:28:19.101Z,67.59
2023-04-16T19:31:20.966Z,64.51
2023-04-16T19:34:22.554Z,63.75
2023-04-16T19:37:24.122Z,62.80
2023-04-16T19:40:25.923Z,62.11
2023-04-16T19:43:30.752Z,58.53
2023-04-16T19:46:32.740Z,54.64
2023-04-16T19:49:34.595Z,53.39
2023-04-16T19:52:38.869Z,52.03
2023-04-16T19:55:41.618Z,53.00
2023-04-16T19:58:43.244Z,77.86
2023-04-16T20:01:45.013Z,78.59
2023-04-16T20:04:48.490Z,78.19
2023-04-16T20:07:52.496Z,77.85
2023-04-16T20:10:54.555Z,77.89
2023-04-16T20:14:00.156Z,77.89
2023-04-16T20:17:01.983Z,78.34
2023-04-16T20:20:07.325Z,78.37
2023-04-16T20:23:08.858Z,78.20
2023-04-16T20:26:13.465Z,78.29
2023-04-16T20:29:15.167Z,78.04
2023-04-16T20:32:16.798Z,77.68
2023-04-16T20:35:18.358Z,77.91
2023-04-16T20:38:23.934Z,77.69
2023-04-16T20:41:25.615Z,78.20
2023-04-16T20:44:33.304Z,78.18
2023-04-16T20:47:35.029Z,77.53
2023-04-16T20:50:36.928Z,77.69
2023-04-16T20:53:38.504Z,77.49
2023-04-16T20:56:40.162Z,77.28
2023-04-16T20:59:41.743Z,77.85
2023-04-16T21:02:43.817Z,77.63
2023-04-16T21:05:50.066Z,77.53
2023-04-16T21:08:51.827Z,77.87
2023-04-16T21:11:56.603Z,77.40
2023-04-16T21:14:58.286Z,77.63
2023-04-16T21:17:59.896Z,77.51
2023-04-16T21:21:01.651Z,77.32
2023-04-16T21:24:03.338Z,77.67
2023-04-16T21:27:04.930Z,77.17
2023-04-16T21:30:07.287Z,76.99
2023-04-16T21:33:08.929Z,76.77
2023-04-16T21:36:11.477Z,75.18
2023-04-16T21:39:14.209Z,75.85
2023-04-16T21:42:16.040Z,76.07
2023-04-16T21:45:17.636Z,75.77
2023-04-16T21:48:20.041Z,75.34
2023-04-16T21:51:28.973Z,75.15
2023-04-16T21:54:30.657Z,75.38
2023-04-16T21:57:32.334Z,75.30
2023-04-16T22:00:34.193Z,74.95
2023-04-16T22:03:40.051Z,75.38
2023-04-16T22:06:43.076Z,75.87
2023-04-16T22:09:44.605Z,75.68
2023-04-16T22:12:46.620Z,76.62
2023-04-16T22:15:48.306Z,77.18
2023-04-16T22:18:49.973Z,76.59
2023-04-16T22:21:51.506Z,76.44
2023-04-16T22:24:53.469Z,76.83
2023-04-16T22:27:55.568Z,77.73
2023-04-16T22:30:57.410Z,77.31
2023-04-16T22:33:59.819Z,77.08
2023-04-16T22:37:03.131Z,77.06
2023-04-16T22:40:08.403Z,78.52
2023-04-16T22:43:09.938Z,78.87
2023-04-16T22:46:11.895Z,78.20
2023-04-16T22:49:13.979Z,78.29
2023-04-16T22:52:16.179Z,78.78
2023-04-16T22:55:17.811Z,78.41
2023-04-16T22:58:19.360Z,78.67
2023-04-16T23:01:21.130Z,79.11
2023-04-16T23:04:22.922Z,78.99
2023-04-16T23:07:24.575Z,79.40
2023-04-16T23:10:26.107Z,79.01
2023-04-16T23:13:27.744Z,79.60
2023-04-16T23:16:29.324Z,79.37
2023-04-16T23:19:31.773Z,79.16
2023-04-16T23:22:33.366Z,79.74
2023-04-16T23:25:34.951Z,80.38
2023-04-16T23:28:36.522Z,80.60
2023-04-16T23:31:38.130Z,79.44
2023-04-16T23:34:39.706Z,79.33
2023-04-16T23:37:41.296Z,79.18
2023-04-16T23:40:42.903Z,79.39
2023-04-16T23:43:44.451Z,79.20
2023-04-16T23:46:46.211Z,79.11
2023-04-16T23:49:47.817Z,78.97
2023-04-16T23:52:49.416Z,79.84
2023-04-16T23:55:51.351Z,79.06
2023-04-16T23:58:52.916Z,79.76
